Time;durP1;ratioP1;P1;durP2;ratioP2;P2;SDS_P1;SDS_P2;PMS_P1;PMS_P2;Temp;Humidity;BMP_temperature;BMP_pressure;BME280_temperature;BME280_humidity;BME280_pressure;Samples;Min_cycle;Max_cycle;Signal;HPM_P1;HPM_P2
2023/12/16 00:00:16;;;;;;;9.87;4.73;;;;;;;1.43;77.94;102163.00;124574;1102;102028;-79
2023/12/16 00:03:08;;;;;;;11.77;4.80;;;;;;;1.37;77.89;102167.57;124715;1102;104274;-79
2023/12/16 00:05:40;;;;;;;12.30;4.83;;;;;;;1.32;77.79;102174.88;124629;1105;104239;-80
2023/12/16 00:08:11;;;;;;;12.23;5.17;;;;;;;1.28;77.82;102182.17;124641;1105;104253;-79
2023/12/16 00:10:43;;;;;;;11.33;5.13;;;;;;;1.24;78.40;102196.48;124666;1105;102242;-79
2023/12/16 00:13:14;;;;;;;11.70;4.63;;;;;;;1.19;77.32;102198.61;124669;1102;104332;-80
2023/12/16 00:15:46;;;;;;;11.97;5.03;;;;;;;1.16;78.26;102200.88;124693;1102;104249;-79
2023/12/16 00:18:17;;;;;;;10.10;4.73;;;;;;;1.14;78.14;102202.41;124627;1102;104102;-79
2023/12/16 00:20:49;;;;;;;12.10;4.43;;;;;;;1.09;77.56;102198.42;124612;1105;102001;-80
2023/12/16 00:23:21;;;;;;;12.43;5.53;;;;;;;1.06;78.11;102208.45;124650;1102;102461;-79
2023/12/16 00:25:52;;;;;;;10.50;4.53;;;;;;;1.01;77.57;102195.09;124550;1103;101947;-78
2023/12/16 00:28:23;;;;;;;9.77;4.50;;;;;;;0.98;77.88;102197.38;124565;1106;104175;-79
2023/12/16 00:30:55;;;;;;;10.70;4.57;;;;;;;0.94;78.12;102195.22;124632;1101;104201;-79
2023/12/16 00:33:26;;;;;;;10.60;4.77;;;;;;;0.91;77.74;102194.91;124605;1102;104184;-80
2023/12/16 00:35:58;;;;;;;9.80;4.60;;;;;;;0.87;77.58;102193.70;124575;1102;104185;-80
2023/12/16 00:38:29;;;;;;;15.83;6.23;;;;;;;0.86;77.62;102199.61;124734;1102;104280;-80
2023/12/16 00:41:03;;;;;;;14.73;5.87;;;;;;;0.82;78.04;102199.14;124692;1102;102249;-80
2023/12/16 00:43:34;;;;;;;13.80;5.77;;;;;;;0.79;77.70;102201.41;124654;1102;101746;-79
2023/12/16 00:46:06;;;;;;;13.37;5.40;;;;;;;0.76;77.66;102203.69;124748;1102;102087;-79
2023/12/16 00:48:37;;;;;;;12.67;4.90;;;;;;;0.73;77.57;102208.54;124652;1102;101912;-80
2023/12/16 00:51:09;;;;;;;9.50;4.50;;;;;;;0.69;77.87;102210.81;124671;1102;101903;-80
2023/12/16 00:53:40;;;;;;;15.47;5.70;;;;;;;0.69;77.74;102213.39;124644;1101;104204;-79
2023/12/16 00:56:12;;;;;;;13.30;5.23;;;;;;;0.68;77.63;102224.47;124645;1102;104179;-80
2023/12/16 00:58:43;;;;;;;12.83;5.33;;;;;;;0.69;78.06;102234.06;124660;1102;102021;-80
2023/12/16 01:01:17;;;;;;;13.50;5.30;;;;;;;0.71;78.21;102239.39;124706;1103;104395;-79
2023/12/16 01:03:48;;;;;;;10.60;5.23;;;;;;;0.73;77.87;102242.12;124623;1103;104268;-79
2023/12/16 01:06:19;;;;;;;11.27;5.07;;;;;;;0.70;77.82;102238.48;124637;1102;103025;-80
2023/12/16 01:08:51;;;;;;;12.57;4.90;;;;;;;0.64;77.66;102245.60;124706;1102;104176;-79
2023/12/16 01:11:22;;;;;;;11.07;4.77;;;;;;;0.59;77.71;102243.28;124713;1102;102177;-79
2023/12/16 01:13:54;;;;;;;11.53;4.50;;;;;;;0.54;77.55;102240.22;124809;1102;102544;-80
2023/12/16 01:16:25;;;;;;;11.03;4.73;;;;;;;0.49;77.44;102244.02;124685;1102;104178;-80
2023/12/16 01:18:57;;;;;;;10.93;4.70;;;;;;;0.45;77.48;102247.95;124513;1105;104249;-79
2023/12/16 01:21:29;;;;;;;14.30;5.40;;;;;;;0.41;77.50;102247.47;124685;1105;104350;-80
2023/12/16 01:24:01;;;;;;;13.33;5.43;;;;;;;0.38;77.51;102257.48;124705;1106;102160;-80
2023/12/16 01:26:33;;;;;;;12.73;5.23;;;;;;;0.34;77.59;102262.33;124634;1105;104399;-79
2023/12/16 01:29:05;;;;;;;14.40;5.63;;;;;;;0.31;77.57;102256.84;124563;1105;104236;-79
2023/12/16 01:31:38;;;;;;;12.67;5.57;;;;;;;0.28;77.78;102261.69;124595;1102;104225;-79
2023/12/16 01:34:09;;;;;;;11.40;5.00;;;;;;;0.25;77.56;102258.78;124644;1102;104169;-80
2023/12/16 01:36:40;;;;;;;11.37;5.47;;;;;;;0.22;77.99;102261.03;125450;1102;101785;-80
2023/12/16 01:39:12;;;;;;;11.20;5.30;;;;;;;0.19;77.65;102240.06;124678;1102;104223;-79
2023/12/16 01:41:43;;;;;;;12.77;5.17;;;;;;;0.17;77.96;102241.55;124579;1102;104278;-80
2023/12/16 01:44:15;;;;;;;12.20;5.10;;;;;;;0.13;77.47;102249.73;124686;1102;104341;-80
2023/12/16 01:46:47;;;;;;;11.77;4.77;;;;;;;0.09;77.94;102245.90;124584;1105;102186;-79
2023/12/16 01:49:19;;;;;;;11.95;5.20;;;;;;;0.07;77.53;102243.93;124683;1103;101886;-80
2023/12/16 01:51:51;;;;;;;16.70;5.30;;;;;;;0.04;77.43;102247.09;124700;1102;104335;-79
2023/12/16 01:54:23;;;;;;;12.47;5.33;;;;;;;-0.05;78.03;102234.14;124591;1102;104181;-79
2023/12/16 01:57:00;;;;;;;13.53;5.73;;;;;;;0.01;78.00;102243.28;124734;1102;102106;-79
2023/12/16 01:59:32;;;;;;;12.97;5.20;;;;;;;-0.04;77.68;102242.79;124691;1102;102103;-79
2023/12/16 02:02:04;;;;;;;12.87;5.40;;;;;;;-0.07;78.00;102247.63;124729;1102;104217;-80
2023/12/16 02:04:38;;;;;;;13.10;5.47;;;;;;;-0.12;78.22;102252.30;124665;1102;102074;-79
2023/12/16 02:07:09;;;;;;;13.45;5.42;;;;;;;-0.14;77.94;102240.91;124582;1102;101891;-79
2023/12/16 02:09:41;;;;;;;16.67;5.63;;;;;;;-0.16;78.22;102247.55;124603;1105;104067;-80
2023/12/16 02:12:12;;;;;;;13.97;5.13;;;;;;;-0.20;77.84;102238.58;124643;1102;104280;-80
2023/12/16 02:14:44;;;;;;;11.67;5.07;;;;;;;-0.20;77.75;102240.25;124688;1102;104181;-79
2023/12/16 02:17:15;;;;;;;12.70;4.97;;;;;;;-0.22;78.21;102239.16;124746;1102;102210;-80
2023/12/16 02:19:48;;;;;;;12.13;5.20;;;;;;;-0.25;77.93;102236.25;124754;1102;104230;-81
2023/12/16 02:22:20;;;;;;;9.87;4.00;;;;;;;-0.29;77.78;102241.84;124700;1102;104169;-80
2023/12/16 02:24:53;;;;;;;14.20;5.60;;;;;;;-0.33;78.29;102240.58;124641;1103;104153;-79
2023/12/16 02:27:24;;;;;;;14.43;6.40;;;;;;;-0.35;78.03;102239.52;124690;1102;102053;-80
2023/12/16 02:29:56;;;;;;;15.13;6.70;;;;;;;-0.37;78.14;102238.45;124698;1102;103114;-80
2023/12/16 02:32:27;;;;;;;20.23;7.70;;;;;;;-0.41;78.25;102236.28;124661;1102;102163;-79
2023/12/16 02:34:58;;;;;;;17.87;7.90;;;;;;;-0.45;77.55;102240.20;124653;1102;102072;-80
2023/12/16 02:37:31;;;;;;;14.20;6.77;;;;;;;-0.49;78.16;102243.19;124738;1102;101782;-79
2023/12/16 02:40:02;;;;;;;14.33;6.47;;;;;;;-0.52;77.61;102252.27;124799;1102;103195;-79
2023/12/16 02:42:34;;;;;;;14.63;5.77;;;;;;;-0.56;77.37;102251.03;124737;1102;102632;-80
2023/12/16 02:45:06;;;;;;;13.70;6.10;;;;;;;-0.60;77.52;102254.92;124636;1102;102358;-80
2023/12/16 02:47:37;;;;;;;12.13;5.43;;;;;;;-0.61;78.40;102262.49;124760;1102;104240;-80
2023/12/16 02:50:10;;;;;;;11.53;5.37;;;;;;;-0.63;78.71;102258.84;124795;1102;104185;-81
2023/12/16 02:52:42;;;;;;;14.90;5.93;;;;;;;-0.64;77.91;102272.47;124828;1102;104254;-80
2023/12/16 02:55:13;;;;;;;13.20;5.30;;;;;;;-0.66;77.77;102282.62;124742;1102;102018;-79
2023/12/16 02:57:45;;;;;;;14.53;6.13;;;;;;;-0.66;78.24;102289.45;124611;1102;104185;-79
2023/12/16 03:00:17;;;;;;;13.03;5.30;;;;;;;-0.68;78.57;102288.38;124748;1102;104139;-80
2023/12/16 03:02:49;;;;;;;13.33;5.57;;;;;;;-0.70;78.03;102284.69;124603;1102;104220;-79
2023/12/16 03:05:20;;;;;;;14.23;5.60;;;;;;;-0.71;78.47;102288.95;124937;1101;102075;-80
2023/12/16 03:07:53;;;;;;;14.20;5.37;;;;;;;-0.73;78.07;102283.63;124923;1102;101945;-79
2023/12/16 03:10:25;;;;;;;12.80;5.83;;;;;;;-0.70;78.41;102300.16;124764;1102;104169;-79
2023/12/16 03:12:56;;;;;;;15.47;6.10;;;;;;;-0.71;78.16;102306.98;124804;1102;102114;-79
2023/12/16 03:15:28;;;;;;;15.40;6.17;;;;;;;-0.72;77.87;102307.73;124865;1102;101903;-79
2023/12/16 03:17:59;;;;;;;14.43;6.00;;;;;;;-0.74;77.87;102304.98;124886;1101;102319;-80
2023/12/16 03:20:31;;;;;;;15.10;6.33;;;;;;;-0.75;78.72;102305.75;124781;1102;101954;-79
2023/12/16 03:23:02;;;;;;;17.93;6.07;;;;;;;-0.76;78.54;102309.06;124791;1102;102332;-79
2023/12/16 03:25:33;;;;;;;14.00;5.87;;;;;;;-0.74;78.39;102310.13;124903;1102;104297;-80
2023/12/16 03:28:05;;;;;;;15.75;5.85;;;;;;;-0.72;78.60;102310.30;124804;1102;104281;-80
2023/12/16 03:30:37;;;;;;;14.10;5.90;;;;;;;-0.70;78.26;102305.31;124752;1102;102038;-80
2023/12/16 03:33:09;;;;;;;16.03;6.80;;;;;;;-0.69;78.83;102309.73;124773;1102;104176;-79
2023/12/16 03:35:40;;;;;;;15.10;6.37;;;;;;;-0.74;78.17;102312.72;124857;1102;104270;-79
2023/12/16 03:38:12;;;;;;;16.30;6.73;;;;;;;-0.78;78.41;102313.14;124772;1102;104221;-80
2023/12/16 03:40:43;;;;;;;15.57;6.03;;;;;;;-0.82;78.66;102315.22;124799;1102;108134;-80
2023/12/16 03:43:16;;;;;;;16.17;6.07;;;;;;;-0.86;78.95;102319.09;124766;1102;104201;-80
2023/12/16 03:45:47;;;;;;;14.40;5.67;;;;;;;-0.88;78.89;102332.58;124799;1102;104342;-79
2023/12/16 03:48:19;;;;;;;16.00;6.57;;;;;;;-0.91;77.91;102330.56;124762;1102;104195;-80
2023/12/16 03:50:50;;;;;;;16.70;6.17;;;;;;;-0.95;78.60;102338.69;124797;1102;104281;-80
2023/12/16 03:53:22;;;;;;;15.57;6.03;;;;;;;-0.97;79.16;102347.92;124783;1101;104080;-79
2023/12/16 03:55:54;;;;;;;15.83;6.23;;;;;;;-0.99;79.28;102352.00;124874;1102;102051;-79
2023/12/16 03:58:25;;;;;;;17.57;6.83;;;;;;;-1.01;78.09;102349.26;124765;1102;104498;-80
2023/12/16 04:00:57;;;;;;;17.73;6.93;;;;;;;-1.01;79.09;102350.89;124738;1102;107479;-80
2023/12/16 04:03:28;;;;;;;16.47;6.50;;;;;;;-1.05;78.71;102351.31;124791;1102;104316;-79
2023/12/16 04:06:00;;;;;;;17.80;6.90;;;;;;;-1.06;78.84;102354.63;124778;1102;102504;-80
2023/12/16 04:08:31;;;;;;;17.47;6.37;;;;;;;-1.05;79.10;102364.20;124828;1098;104207;-80
2023/12/16 04:11:02;;;;;;;15.93;6.67;;;;;;;-1.04;78.83;102358.28;124777;1102;104210;-80
2023/12/16 04:13:35;;;;;;;17.60;6.23;;;;;;;-1.02;78.80;102359.39;124799;1102;104175;-80
2023/12/16 04:16:08;;;;;;;16.33;6.33;;;;;;;-1.02;79.44;102369.70;124753;1102;102327;-80
2023/12/16 04:18:39;;;;;;;19.37;6.73;;;;;;;-1.02;78.54;102375.76;124827;1102;101966;-80
2023/12/16 04:21:11;;;;;;;18.53;6.90;;;;;;;-1.03;78.34;102375.59;124795;1102;101909;-80
2023/12/16 04:23:42;;;;;;;18.57;7.40;;;;;;;-1.05;79.61;102382.23;124781;1102;104513;-80
2023/12/16 04:26:13;;;;;;;20.10;7.50;;;;;;;-1.09;78.43;102381.89;124802;1102;102841;-80
2023/12/16 04:28:45;;;;;;;15.43;6.13;;;;;;;-1.12;79.46;102371.24;124806;1102;104172;-80
2023/12/16 04:31:17;;;;;;;19.57;7.87;;;;;;;-1.14;78.86;102370.16;124795;1102;101859;-80
2023/12/16 04:33:50;;;;;;;17.87;7.03;;;;;;;-1.14;79.10;102369.22;124789;1102;104245;-79
2023/12/16 04:36:22;;;;;;;19.30;7.70;;;;;;;-1.16;79.72;102374.20;124801;1102;104165;-80
2023/12/16 04:38:53;;;;;;;20.23;7.50;;;;;;;-1.17;79.19;102366.30;124860;1102;104034;-80
2023/12/16 04:41:25;;;;;;;17.87;7.23;;;;;;;-1.18;78.89;102370.55;124850;1102;101941;-79
2023/12/16 04:43:56;;;;;;;20.10;8.30;;;;;;;-1.19;79.24;102365.23;124762;1102;102038;-80
2023/12/16 04:46:28;;;;;;;20.37;8.33;;;;;;;-1.16;79.47;102365.57;124817;1102;102415;-80
2023/12/16 04:48:59;;;;;;;17.17;7.03;;;;;;;-1.12;79.06;102367.77;124741;1102;102315;-80
2023/12/16 04:51:30;;;;;;;19.43;6.97;;;;;;;-1.10;79.75;102372.32;124751;1101;102073;-79
2023/12/16 04:54:02;;;;;;;17.67;6.53;;;;;;;-1.11;79.62;102367.00;124778;1102;102118;-79
2023/12/16 04:56:33;;;;;;;17.00;7.20;;;;;;;-1.11;79.43;102372.15;124680;1102;104240;-80
2023/12/16 04:59:05;;;;;;;18.00;7.03;;;;;;;-1.14;79.95;102369.22;124830;1102;104166;-79
2023/12/16 05:01:37;;;;;;;18.80;7.33;;;;;;;-1.17;80.30;102368.88;124790;1102;102572;-80
2023/12/16 05:04:08;;;;;;;17.90;7.20;;;;;;;-1.19;79.82;102366.13;124816;1102;104217;-80
2023/12/16 05:06:40;;;;;;;21.37;7.27;;;;;;;-1.20;79.41;102374.62;124756;1102;104319;-80
2023/12/16 05:09:12;;;;;;;18.07;7.20;;;;;;;-1.20;79.02;102382.36;124831;1102;101835;-80
2023/12/16 05:11:43;;;;;;;17.03;7.10;;;;;;;-1.19;80.10;102383.26;124850;1102;102062;-80
2023/12/16 05:14:15;;;;;;;18.10;7.23;;;;;;;-1.17;79.76;102363.73;124850;1102;104347;-80
2023/12/16 05:16:46;;;;;;;17.80;7.27;;;;;;;-1.12;79.34;102365.19;124768;1101;101988;-80
2023/12/16 05:19:18;;;;;;;20.27;7.80;;;;;;;-1.09;79.88;102362.95;124891;1102;104166;-80
2023/12/16 05:21:49;;;;;;;19.37;7.50;;;;;;;-1.05;79.97;102362.53;124807;1102;101893;-80
2023/12/16 05:24:21;;;;;;;18.13;7.37;;;;;;;-1.02;80.49;102362.88;124852;1102;102308;-80
2023/12/16 05:26:53;;;;;;;19.67;8.50;;;;;;;-0.97;80.08;102359.14;124813;1102;104291;-80
2023/12/16 05:29:24;;;;;;;20.53;8.03;;;;;;;-0.93;79.68;102361.32;124844;1100;104211;-80
2023/12/16 05:31:56;;;;;;;18.80;8.27;;;;;;;-0.91;79.48;102364.07;124745;1102;101919;-80
2023/12/16 05:34:27;;;;;;;20.27;8.97;;;;;;;-0.89;80.47;102359.09;124897;1102;101813;-80
2023/12/16 05:37:04;;;;;;;22.17;9.13;;;;;;;-0.88;79.57;102368.66;124838;1102;102093;-80
2023/12/16 05:39:35;;;;;;;25.60;10.37;;;;;;;-0.87;80.29;102357.59;124925;1102;102027;-80
2023/12/16 05:42:16;;;;;;;22.77;10.07;;;;;;;-0.88;80.34;102355.78;124803;1102;104236;-80
2023/12/16 05:44:48;;;;;;;25.77;10.67;;;;;;;-0.86;80.09;102360.34;124808;1102;104185;-81
2023/12/16 05:47:19;;;;;;;24.13;11.17;;;;;;;-0.82;80.11;102357.36;124869;1102;104226;-80
2023/12/16 05:49:51;;;;;;;25.90;10.67;;;;;;;-0.78;80.21;102351.81;124873;1102;101961;-80
2023/12/16 05:52:22;;;;;;;20.80;9.27;;;;;;;-0.74;80.49;102361.70;124743;1102;103630;-80
2023/12/16 05:54:54;;;;;;;24.53;10.30;;;;;;;-0.73;80.03;102340.34;124845;1102;102193;-80
2023/12/16 05:57:25;;;;;;;22.10;9.33;;;;;;;-0.68;80.10;102343.42;124846;1102;104221;-79
2023/12/16 05:59:57;;;;;;;23.63;10.07;;;;;;;-0.62;80.78;102343.20;124891;1102;104638;-80
2023/12/16 06:02:28;;;;;;;24.50;10.03;;;;;;;-0.55;80.61;102345.67;124713;1101;101897;-80
2023/12/16 06:05:00;;;;;;;21.60;9.00;;;;;;;-0.53;80.42;102344.20;124807;1102;102015;-81
2023/12/16 06:07:32;;;;;;;23.83;9.43;;;;;;;-0.53;80.26;102359.68;124798;1102;104213;-81
2023/12/16 06:10:04;;;;;;;26.63;9.50;;;;;;;-0.53;80.08;102354.52;124814;1102;101884;-80
2023/12/16 06:12:35;;;;;;;23.43;9.13;;;;;;;-0.53;80.04;102346.78;124895;1100;104178;-80
2023/12/16 06:15:09;;;;;;;19.95;8.65;;;;;;;-0.51;80.25;102342.70;124837;1102;102017;-80
2023/12/16 06:17:40;;;;;;;20.95;8.55;;;;;;;-0.49;80.62;102341.19;124879;1102;102090;-80
2023/12/16 06:20:13;;;;;;;21.23;8.93;;;;;;;-0.50;80.26;102347.09;124881;1102;104095;-80
2023/12/16 06:22:44;;;;;;;21.30;9.00;;;;;;;-0.49;80.73;102345.45;124827;1102;102096;-80
2023/12/16 06:25:16;;;;;;;21.70;8.87;;;;;;;-0.47;80.16;102350.00;125009;1102;104172;-80
2023/12/16 06:27:47;;;;;;;23.00;9.57;;;;;;;-0.49;80.58;102351.51;124859;1102;102074;-80
2023/12/16 06:30:19;;;;;;;24.87;9.83;;;;;;;-0.45;80.72;102355.33;124874;1102;102214;-80
2023/12/16 06:32:51;;;;;;;23.13;10.13;;;;;;;-0.41;80.92;102348.09;124771;1102;104226;-80
2023/12/16 06:35:24;;;;;;;21.20;9.53;;;;;;;-0.37;80.43;102355.44;124798;1102;104204;-81
2023/12/16 06:37:55;;;;;;;25.23;10.63;;;;;;;-0.35;80.00;102365.02;125780;1101;101833;-80
2023/12/16 06:40:27;;;;;;;24.87;10.70;;;;;;;-0.34;80.08;102353.92;125724;1101;102041;-80
2023/12/16 06:42:58;;;;;;;24.77;10.50;;;;;;;-0.31;80.78;102351.68;124781;1102;105452;-80
2023/12/16 06:45:32;;;;;;;22.37;10.10;;;;;;;-0.29;80.87;102355.36;124772;1102;104178;-80
2023/12/16 06:48:03;;;;;;;23.20;10.63;;;;;;;-0.28;79.95;102346.85;124840;1102;102473;-80
2023/12/16 06:50:35;;;;;;;24.60;10.63;;;;;;;-0.28;80.46;102346.85;124935;1102;104297;-80
2023/12/16 06:53:06;;;;;;;22.93;9.97;;;;;;;-0.25;80.90;102352.34;124830;1102;104080;-80
2023/12/16 06:55:37;;;;;;;22.17;9.80;;;;;;;-0.22;80.97;102347.52;124886;1102;102156;-81
2023/12/16 06:58:09;;;;;;;23.47;9.20;;;;;;;-0.21;81.24;102344.20;124908;1102;104268;-80
2023/12/16 07:00:41;;;;;;;25.93;9.80;;;;;;;-0.18;81.03;102357.44;124946;1102;104198;-80
2023/12/16 07:03:12;;;;;;;22.37;9.23;;;;;;;-0.18;80.94;102352.28;124854;1102;102331;-80
2023/12/16 07:05:44;;;;;;;28.63;10.43;;;;;;;-0.13;80.13;102351.09;124919;1101;101833;-80
2023/12/16 07:08:15;;;;;;;22.17;10.10;;;;;;;-0.05;80.82;102352.86;124867;1102;104163;-81
2023/12/16 07:10:47;;;;;;;24.70;9.47;;;;;;;0.01;80.66;102344.84;124840;1102;104096;-80
2023/12/16 07:13:18;;;;;;;21.53;8.27;;;;;;;0.07;80.69;102344.59;124762;1102;102114;-81
2023/12/16 07:15:49;;;;;;;24.73;8.90;;;;;;;0.12;81.03;102348.58;124881;1102;104255;-80
2023/12/16 07:18:21;;;;;;;22.53;9.00;;;;;;;0.15;80.67;102351.48;124847;1102;101980;-80
2023/12/16 07:20:52;;;;;;;24.27;8.83;;;;;;;0.19;80.61;102353.66;124900;1102;104226;-80
2023/12/16 07:23:24;;;;;;;24.75;9.70;;;;;;;0.27;80.94;102360.55;124781;1102;104070;-80
2023/12/16 07:25:55;;;;;;;23.67;9.37;;;;;;;0.32;80.90;102364.52;124892;1102;104204;-80
2023/12/16 07:28:27;;;;;;;24.33;9.67;;;;;;;0.38;80.41;102359.11;124875;1102;104313;-81
2023/12/16 07:30:59;;;;;;;23.97;9.27;;;;;;;0.45;80.77;102371.00;124936;1102;101813;-80
2023/12/16 07:33:31;;;;;;;22.00;9.43;;;;;;;0.51;80.63;102369.06;124851;1102;102454;-80
2023/12/16 07:36:03;;;;;;;25.57;9.80;;;;;;;0.62;80.83;102370.20;124707;1102;104204;-81
2023/12/16 07:38:35;;;;;;;22.33;8.67;;;;;;;0.69;80.72;102372.69;124775;1102;104195;-80
2023/12/16 07:41:07;;;;;;;24.07;8.97;;;;;;;0.78;80.64;102370.14;124850;1102;104179;-81
2023/12/16 07:43:38;;;;;;;23.00;9.43;;;;;;;0.84;80.66;102375.95;124940;1102;104189;-80
2023/12/16 07:46:10;;;;;;;21.20;9.00;;;;;;;0.90;80.39;102376.59;124894;1101;104416;-80
2023/12/16 07:48:42;;;;;;;23.37;9.27;;;;;;;0.96;80.65;102379.81;124903;1102;104159;-80
2023/12/16 07:51:19;;;;;;;22.53;9.80;;;;;;;0.99;80.30;102385.30;124859;1102;104176;-80
2023/12/16 07:53:50;;;;;;;24.73;9.90;;;;;;;1.03;80.38;102379.72;124879;1102;102228;-80
2023/12/16 07:56:23;;;;;;;23.45;9.20;;;;;;;1.06;80.46;102377.45;124802;1102;102118;-81
2023/12/16 07:58:56;;;;;;;22.30;9.63;;;;;;;1.09;80.28;102371.66;124921;1102;104344;-80
2023/12/16 08:01:28;;;;;;;24.97;9.63;;;;;;;1.15;80.22;102377.47;124874;1102;101909;-80
2023/12/16 08:03:59;;;;;;;23.13;9.20;;;;;;;1.24;80.22;102378.41;124890;1102;101855;-80
2023/12/16 08:06:31;;;;;;;22.50;9.40;;;;;;;1.31;80.32;102382.57;124907;1102;104233;-80
2023/12/16 08:09:04;;;;;;;22.13;9.40;;;;;;;1.37;80.48;102378.03;124774;1102;102109;-81
2023/12/16 08:11:36;;;;;;;23.23;9.47;;;;;;;1.43;80.86;102370.90;124934;1101;104246;-80
2023/12/16 08:14:07;;;;;;;21.77;9.83;;;;;;;1.47;80.12;102384.15;124944;1102;104178;-80
2023/12/16 08:16:40;;;;;;;25.53;9.93;;;;;;;1.53;80.30;102370.16;124999;1102;104171;-80
2023/12/16 08:19:11;;;;;;;22.97;10.07;;;;;;;1.56;80.46;102377.33;124957;1102;104227;-80
2023/12/16 08:21:43;;;;;;;24.80;9.60;;;;;;;1.58;80.01;102380.98;125082;1102;104174;-80
2023/12/16 08:24:14;;;;;;;22.50;9.33;;;;;;;1.60;80.61;102392.38;124991;1102;104287;-80
2023/12/16 08:26:50;;;;;;;26.07;10.67;;;;;;;1.63;80.71;102387.52;124962;1102;102679;-80
2023/12/16 08:29:21;;;;;;;23.83;9.93;;;;;;;1.65;80.43;102391.17;124924;1102;104179;-80
2023/12/16 08:31:53;;;;;;;22.17;9.53;;;;;;;1.66;79.79;102385.25;124903;1102;102064;-80
2023/12/16 08:34:24;;;;;;;27.47;9.97;;;;;;;1.72;80.45;102387.55;124896;1102;101816;-80
2023/12/16 08:36:57;;;;;;;25.53;10.17;;;;;;;1.75;80.33;102374.92;124986;1102;104309;-80
2023/12/16 08:39:29;;;;;;;22.97;10.27;;;;;;;1.75;80.20;102372.34;124856;1102;104246;-80
2023/12/16 08:42:00;;;;;;;24.33;9.93;;;;;;;1.70;79.79;102376.11;124911;1102;104689;-80
2023/12/16 08:44:32;;;;;;;22.50;9.93;;;;;;;1.70;80.41;102376.11;124890;1102;102333;-80
2023/12/16 08:47:03;;;;;;;24.93;10.20;;;;;;;1.68;80.11;102375.95;124835;1102;102254;-80
2023/12/16 08:49:35;;;;;;;23.87;9.80;;;;;;;1.70;79.83;102369.28;124822;1102;104287;-81
2023/12/16 08:52:07;;;;;;;26.73;10.37;;;;;;;1.70;80.25;102374.46;124880;1102;102067;-79
2023/12/16 08:54:40;;;;;;;29.07;9.70;;;;;;;1.70;80.29;102378.70;124883;1102;104063;-79
2023/12/16 08:57:11;;;;;;;22.13;9.70;;;;;;;1.71;80.16;102372.77;124869;1102;104176;-79
2023/12/16 08:59:43;;;;;;;24.07;10.13;;;;;;;1.71;79.72;102378.85;124847;1102;102158;-78
2023/12/16 09:02:14;;;;;;;24.47;10.27;;;;;;;1.71;79.76;102373.67;124915;1102;101913;-78
2023/12/16 09:04:46;;;;;;;24.87;9.53;;;;;;;1.75;79.56;102373.23;124860;1102;104169;-79
2023/12/16 09:07:27;;;;;;;;;;;;;;;;;;;;;
2023/12/16 09:10:23;;;;;;;26.53;10.83;;;;;;;1.80;79.49;102381.47;124948;1102;104248;-81
2023/12/16 09:12:55;;;;;;;18.90;8.83;;;;;;;1.83;79.53;102370.52;124858;1102;102484;-80
2023/12/16 09:15:26;;;;;;;25.50;10.80;;;;;;;1.87;79.52;102370.05;124851;1102;104173;-81
2023/12/16 09:17:58;;;;;;;25.97;10.13;;;;;;;1.96;79.43;102368.39;124962;1102;104085;-80
2023/12/16 09:20:29;;;;;;;29.80;11.47;;;;;;;2.00;79.75;102365.36;124888;1102;104261;-81
2023/12/16 09:23:01;;;;;;;24.40;10.93;;;;;;;2.05;79.28;102358.95;124789;1102;104332;-80
2023/12/16 09:25:33;;;;;;;22.55;10.20;;;;;;;2.14;79.65;102361.55;124740;1102;102377;-80
2023/12/16 09:28:04;;;;;;;26.30;10.87;;;;;;;2.22;79.50;102362.31;124784;1102;101944;-81
2023/12/16 09:30:36;;;;;;;27.17;11.73;;;;;;;2.27;78.53;102356.80;124852;1102;104217;-80
2023/12/16 09:33:07;;;;;;;26.13;11.57;;;;;;;2.36;79.49;102346.45;124844;1102;104194;-80
2023/12/16 09:35:39;;;;;;;28.63;11.17;;;;;;;2.40;79.75;102339.88;124838;1102;102016;-80
2023/12/16 09:38:10;;;;;;;24.97;10.80;;;;;;;2.44;78.42;102340.33;124892;1102;101822;-80
2023/12/16 09:40:44;;;;;;;29.60;12.03;;;;;;;2.47;78.80;102343.22;124704;1102;104692;-80
2023/12/16 09:43:18;;;;;;;24.55;10.45;;;;;;;2.44;78.52;102342.92;124786;1102;104189;-79
2023/12/16 09:45:49;;;;;;;27.77;11.73;;;;;;;2.40;78.95;102333.04;124830;1102;101995;-80
2023/12/16 09:48:24;;;;;;;26.97;11.00;;;;;;;2.43;79.50;102334.99;124832;1102;102458;-81
2023/12/16 09:50:55;;;;;;;24.40;11.20;;;;;;;2.47;78.50;102335.45;124791;1102;104188;-79
2023/12/16 09:53:27;;;;;;;26.13;11.33;;;;;;;2.52;78.96;102328.12;124746;1100;104654;-78
2023/12/16 09:55:58;;;;;;;28.40;12.23;;;;;;;2.56;78.49;102318.98;124735;1102;104374;-80
2023/12/16 09:58:34;;;;;;;34.63;13.07;;;;;;;2.60;79.20;102316.84;124820;1102;104389;-79
2023/12/16 10:01:08;;;;;;;30.17;12.90;;;;;;;2.70;78.12;102327.31;124619;1102;104253;-78
2023/12/16 10:03:40;;;;;;;27.80;11.63;;;;;;;2.75;78.78;102317.39;124865;1102;104245;-79
2023/12/16 10:06:12;;;;;;;25.27;12.03;;;;;;;2.80;78.80;102321.32;124860;1102;104283;-79
2023/12/16 10:08:44;;;;;;;24.63;11.73;;;;;;;2.85;78.39;102320.11;124955;1099;102006;-79
2023/12/16 10:11:16;;;;;;;25.20;11.90;;;;;;;2.88;77.59;102315.22;124817;1099;102086;-79
2023/12/16 10:14:03;;;;;;;29.37;12.30;;;;;;;2.93;78.15;102320.84;124824;1102;104235;-79
2023/12/16 10:16:35;;;;;;;26.33;11.67;;;;;;;3.03;78.18;102307.06;124788;1102;104208;-79
2023/12/16 10:19:06;;;;;;;26.77;12.13;;;;;;;3.09;79.20;102310.23;124728;1102;102520;-79
2023/12/16 10:21:38;;;;;;;27.30;11.23;;;;;;;3.11;78.44;102308.69;124842;1102;102192;-79
2023/12/16 10:24:11;;;;;;;28.17;12.30;;;;;;;3.10;78.62;102318.92;124816;1102;103397;-78
2023/12/16 10:26:45;;;;;;;27.47;11.23;;;;;;;3.12;78.38;102317.41;124839;1102;104268;-79
2023/12/16 10:29:21;;;;;;;27.43;11.57;;;;;;;3.21;78.17;102324.38;124892;1099;102338;-79
2023/12/16 10:31:53;;;;;;;24.83;11.83;;;;;;;3.22;78.15;102320.98;124888;1100;104306;-80
2023/12/16 10:34:28;;;;;;;24.63;11.30;;;;;;;3.27;77.65;102318.83;124748;1099;104163;-79
2023/12/16 10:37:07;;;;;;;25.37;10.97;;;;;;;3.28;77.62;102333.64;124750;1099;102075;-79
2023/12/16 10:39:39;;;;;;;26.10;11.60;;;;;;;3.30;77.80;102337.28;124706;1102;104239;-78
2023/12/16 10:42:10;;;;;;;25.57;10.53;;;;;;;3.32;77.74;102334.83;124709;1102;101939;-80
2023/12/16 10:44:41;;;;;;;27.10;11.63;;;;;;;3.32;77.54;102340.02;124822;1102;104203;-79
2023/12/16 10:47:17;;;;;;;24.77;11.40;;;;;;;3.31;77.21;102346.00;124719;1102;104220;-79
2023/12/16 10:49:49;;;;;;;25.97;11.67;;;;;;;3.31;77.80;102340.81;124792;1102;104321;-79
2023/12/16 10:52:23;;;;;;;24.03;10.73;;;;;;;3.42;78.07;102342.72;124897;1099;103311;-79
2023/12/16 10:55:03;;;;;;;29.57;12.43;;;;;;;3.53;78.14;102341.14;124869;1102;101965;-79
2023/12/16 10:57:46;;;;;;;26.70;10.80;;;;;;;3.60;77.63;102339.25;124828;1102;104316;-78
2023/12/16 11:00:24;;;;;;;26.23;11.47;;;;;;;3.67;78.17;102330.34;124827;1102;104344;-79
2023/12/16 11:03:06;;;;;;;29.00;12.37;;;;;;;3.75;77.81;102318.97;124890;1102;102457;-79
2023/12/16 11:05:44;;;;;;;24.37;11.50;;;;;;;3.80;77.98;102309.01;124896;1100;102328;-79
2023/12/16 11:08:17;;;;;;;26.17;11.27;;;;;;;3.81;77.61;102313.45;124810;1098;104183;-80
2023/12/16 11:10:50;;;;;;;25.37;11.43;;;;;;;3.79;77.00;102320.19;124884;1102;104227;-79
2023/12/16 11:13:22;;;;;;;26.87;11.97;;;;;;;3.74;77.61;102308.45;124782;1102;104178;-79
2023/12/16 11:16:00;;;;;;;26.43;11.33;;;;;;;3.74;77.80;102311.05;124863;1099;102264;-79
2023/12/16 11:18:33;;;;;;;26.83;12.53;;;;;;;3.72;77.05;102302.20;124847;1099;104185;-79
2023/12/16 11:21:12;;;;;;;25.67;11.47;;;;;;;3.69;76.67;102307.12;124828;1102;104172;-80
2023/12/16 11:23:48;;;;;;;27.60;12.27;;;;;;;3.70;77.53;102317.64;124918;1100;104169;-80
2023/12/16 11:26:20;;;;;;;25.13;11.40;;;;;;;3.69;77.53;102309.72;124774;1101;104150;-80